Time;durP1;ratioP1;P1;durP2;ratioP2;P2;SDS_P1;SDS_P2;PMS_P1;PMS_P2;Temp;Humidity;BMP_temperature;BMP_pressure;BME280_temperature;BME280_humidity;BME280_pressure;Samples;Min_cycle;Max_cycle;Signal;HPM_P1;HPM_P2
2021/10/11 00:00:20;;;;;;;28.33;20.93;;;14.80;99.90;;;;;;5055246;28;20651;-83
2021/10/11 00:02:46;;;;;;;25.73;18.70;;;14.70;99.90;;;;;;5055788;28;20171;-83
2021/10/11 00:05:11;;;;;;;22.33;15.23;;;14.70;99.90;;;;;;5055969;28;20625;-83
2021/10/11 00:07:38;;;;;;;21.73;14.43;;;14.60;99.90;;;;;;5055325;28;20212;-83
2021/10/11 00:10:05;;;;;;;18.47;13.73;;;14.60;99.90;;;;;;5055576;28;20173;-84
2021/10/11 00:12:31;;;;;;;17.67;12.10;;;14.50;99.90;;;;;;5056215;28;20165;-84
2021/10/11 00:14:57;;;;;;;19.23;12.30;;;14.50;99.90;;;;;;5057335;28;20167;-83
2021/10/11 00:17:23;;;;;;;19.90;12.20;;;14.50;99.90;;;;;;5056714;28;20169;-83
2021/10/11 00:19:51;;;;;;;17.47;11.03;;;14.40;99.90;;;;;;5055810;28;20215;-86
2021/10/11 00:22:23;;;;;;;19.97;12.40;;;14.60;99.90;;;;;;5055504;28;20173;-83
2021/10/11 00:24:48;;;;;;;18.00;11.00;;;14.40;99.90;;;;;;5054929;28;20180;-83
2021/10/11 00:27:14;;;;;;;21.83;12.20;;;14.30;99.90;;;;;;5054993;28;20212;-83
2021/10/11 00:29:40;;;;;;;17.60;10.50;;;14.30;99.90;;;;;;5055094;28;20640;-84
2021/10/11 00:32:08;;;;;;;14.47;10.17;;;14.40;99.90;;;;;;5054105;28;20184;-84
2021/10/11 00:34:34;;;;;;;17.83;10.57;;;14.30;99.90;;;;;;5054165;28;20174;-83
2021/10/11 00:37:00;;;;;;;15.83;9.47;;;14.60;99.90;;;;;;5055098;28;20190;-83
2021/10/11 00:39:26;;;;;;;14.43;9.90;;;14.30;99.90;;;;;;5055116;28;20642;-82
2021/10/11 00:41:55;;;;;;;16.50;9.73;;;14.30;99.90;;;;;;5055214;28;20175;-84
2021/10/11 00:44:21;;;;;;;12.00;8.20;;;14.40;99.90;;;;;;5055167;28;20177;-83
2021/10/11 00:46:46;;;;;;;17.30;8.67;;;14.10;99.90;;;;;;5054734;28;20295;-83
2021/10/11 00:49:12;;;;;;;11.53;7.43;;;14.20;99.90;;;;;;5054618;28;20627;-83
2021/10/11 00:51:38;;;;;;;12.70;7.13;;;14.10;99.90;;;;;;5054757;28;20173;-83
2021/10/11 00:54:05;;;;;;;11.30;6.67;;;14.00;99.90;;;;;;5054481;28;20167;-83
2021/10/11 00:56:31;;;;;;;12.30;7.23;;;13.90;99.90;;;;;;5054602;28;20171;-83
2021/10/11 00:58:57;;;;;;;14.90;7.50;;;13.90;99.90;;;;;;5054810;28;20163;-83
2021/10/11 01:01:23;;;;;;;15.60;6.60;;;13.90;99.90;;;;;;5054958;28;20178;-82
2021/10/11 01:03:50;;;;;;;12.10;6.90;;;13.80;99.90;;;;;;5055519;28;20222;-81
2021/10/11 01:06:16;;;;;;;14.07;6.33;;;13.80;99.90;;;;;;5056256;28;20221;-81
2021/10/11 01:08:43;;;;;;;12.73;5.77;;;14.00;99.90;;;;;;5055054;28;20177;-83
2021/10/11 01:11:08;;;;;;;10.60;5.93;;;14.00;99.90;;;;;;5062198;28;20172;-85
2021/10/11 01:13:34;;;;;;;9.37;5.27;;;13.80;99.90;;;;;;5072651;28;20188;-83
2021/10/11 01:16:00;;;;;;;10.57;5.07;;;14.00;99.90;;;;;;5057456;28;20267;-83
2021/10/11 01:18:26;;;;;;;11.40;5.43;;;14.10;99.90;;;;;;5055242;28;20206;-82
2021/10/11 01:20:53;;;;;;;12.07;4.87;;;13.90;99.90;;;;;;5057082;28;20172;-81
2021/10/11 01:23:18;;;;;;;13.37;5.60;;;13.90;99.90;;;;;;5067657;28;20213;-86
2021/10/11 01:25:44;;;;;;;12.17;5.27;;;13.80;99.90;;;;;;5059490;28;20208;-81
2021/10/11 01:28:10;;;;;;;8.83;4.57;;;14.00;99.90;;;;;;5054355;28;20214;-81
2021/10/11 01:30:36;;;;;;;9.10;4.77;;;14.00;99.90;;;;;;5054134;28;20177;-81
2021/10/11 01:33:02;;;;;;;10.37;4.80;;;13.80;99.90;;;;;;5073416;28;20182;-81
2021/10/11 01:35:28;;;;;;;9.90;4.80;;;13.70;99.90;;;;;;5076303;28;20520;-81
2021/10/11 01:37:53;;;;;;;8.53;4.50;;;13.60;99.90;;;;;;5057084;28;20549;-82
2021/10/11 01:40:22;;;;;;;12.87;4.50;;;13.70;99.90;;;;;;5059484;28;20219;-81
2021/10/11 01:43:01;;;;;;;6.47;3.47;;;13.70;99.90;;;;;;5058944;28;20197;-82
2021/10/11 01:45:27;;;;;;;8.87;3.87;;;13.60;99.90;;;;;;5056482;28;20253;-81
2021/10/11 01:47:52;;;;;;;9.10;4.03;;;13.60;99.90;;;;;;5057716;28;20234;-82
2021/10/11 01:50:19;;;;;;;9.63;4.27;;;13.50;99.90;;;;;;5057213;28;20268;-83
2021/10/11 01:52:46;;;;;;;9.13;3.77;;;13.50;99.90;;;;;;5052443;28;20170;-83
2021/10/11 01:55:12;;;;;;;9.80;3.83;;;13.80;99.90;;;;;;5052869;28;20175;-83
2021/10/11 01:57:39;;;;;;;7.63;3.50;;;13.60;99.90;;;;;;5052312;28;20175;-83
2021/10/11 02:00:07;;;;;;;10.13;3.67;;;13.70;99.90;;;;;;5053487;28;20250;-82
2021/10/11 02:02:34;;;;;;;9.77;3.37;;;13.60;99.90;;;;;;5052315;28;20707;-82
2021/10/11 02:05:00;;;;;;;7.90;3.30;;;13.60;99.90;;;;;;5053456;28;20162;-81
2021/10/11 02:07:26;;;;;;;7.70;3.30;;;13.60;99.90;;;;;;5053402;28;20544;-83
2021/10/11 02:09:52;;;;;;;8.30;3.37;;;13.50;99.90;;;;;;5053754;28;20188;-82
2021/10/11 02:12:18;;;;;;;11.50;3.90;;;13.60;99.90;;;;;;5053294;28;20172;-84
2021/10/11 02:14:44;;;;;;;9.43;3.20;;;13.50;99.90;;;;;;5053808;28;20565;-84
2021/10/11 02:17:10;;;;;;;7.53;3.03;;;13.40;99.90;;;;;;5053361;28;20195;-83
2021/10/11 02:19:35;;;;;;;7.37;2.83;;;13.40;99.90;;;;;;5055267;28;20231;-83
2021/10/11 02:22:01;;;;;;;8.03;3.03;;;13.30;99.90;;;;;;5057245;28;20179;-83
2021/10/11 02:24:27;;;;;;;9.27;3.00;;;13.30;99.90;;;;;;5063436;28;20182;-82
2021/10/11 02:26:52;;;;;;;9.77;3.17;;;13.30;99.90;;;;;;5055226;28;20216;-84
2021/10/11 02:29:19;;;;;;;9.17;3.03;;;13.40;99.90;;;;;;5053958;28;20169;-82
2021/10/11 02:31:46;;;;;;;9.07;3.10;;;13.40;99.90;;;;;;5052307;28;20181;-85
2021/10/11 02:34:11;;;;;;;9.03;3.10;;;13.40;99.90;;;;;;5053359;28;20173;-85
2021/10/11 02:36:37;;;;;;;9.63;3.03;;;13.60;99.90;;;;;;5054248;28;20659;-82
2021/10/11 02:39:03;;;;;;;9.47;3.17;;;13.80;99.90;;;;;;5055344;28;20175;-82
2021/10/11 02:41:29;;;;;;;7.83;3.10;;;13.70;99.90;;;;;;5058214;28;20182;-84
2021/10/11 02:43:55;;;;;;;11.07;3.13;;;13.50;99.90;;;;;;5053441;28;20178;-82
2021/10/11 02:46:20;;;;;;;6.70;3.30;;;13.60;99.90;;;;;;5058852;28;20204;-81
2021/10/11 02:48:46;;;;;;;9.00;3.50;;;13.50;99.90;;;;;;5061213;28;20230;-81
2021/10/11 02:51:12;;;;;;;6.70;3.20;;;13.60;99.90;;;;;;5059287;28;20182;-81
2021/10/11 02:53:37;;;;;;;10.00;3.63;;;13.50;99.90;;;;;;5055973;28;20674;-82
2021/10/11 02:56:03;;;;;;;10.17;2.80;;;13.60;99.90;;;;;;5052022;28;20706;-82
2021/10/11 02:58:29;;;;;;;14.87;3.73;;;13.60;99.90;;;;;;5053313;28;20677;-82
2021/10/11 03:00:54;;;;;;;8.07;3.00;;;13.60;99.90;;;;;;5054172;28;20190;-82
2021/10/11 03:03:20;;;;;;;9.57;3.53;;;13.40;99.90;;;;;;5053155;28;20165;-81
2021/10/11 03:05:46;;;;;;;7.37;3.07;;;13.40;99.90;;;;;;5052878;28;20215;-83
2021/10/11 03:08:11;;;;;;;10.17;3.60;;;13.50;99.90;;;;;;5052926;28;20174;-83
2021/10/11 03:10:37;;;;;;;8.47;3.57;;;13.60;99.90;;;;;;5052590;28;20169;-82
2021/10/11 03:13:03;;;;;;;10.27;3.77;;;13.70;99.90;;;;;;5052740;28;20650;-82
2021/10/11 03:15:28;;;;;;;8.33;3.30;;;13.60;99.90;;;;;;5052644;28;20702;-81
2021/10/11 03:17:54;;;;;;;11.03;4.03;;;13.60;99.90;;;;;;5052150;28;20199;-82
2021/10/11 03:20:20;;;;;;;9.70;3.80;;;13.40;99.90;;;;;;5051455;28;20180;-81
2021/10/11 03:22:45;;;;;;;11.53;3.50;;;13.50;99.90;;;;;;5052313;28;20607;-81
2021/10/11 03:25:11;;;;;;;8.57;3.47;;;13.40;99.90;;;;;;5051161;28;20734;-80
2021/10/11 03:27:37;;;;;;;6.27;3.33;;;13.40;99.90;;;;;;5052382;28;20637;-81
2021/10/11 03:30:03;;;;;;;11.50;3.50;;;13.30;99.90;;;;;;5051807;28;20165;-82
2021/10/11 03:32:28;;;;;;;8.43;3.07;;;13.40;99.90;;;;;;5052296;28;20634;-84
2021/10/11 03:34:55;;;;;;;9.87;3.60;;;13.30;99.90;;;;;;5056297;28;20536;-81
2021/10/11 03:37:20;;;;;;;6.53;3.00;;;13.30;99.90;;;;;;5056315;28;20184;-83
2021/10/11 03:39:46;;;;;;;8.63;3.50;;;13.30;99.90;;;;;;5056931;28;20634;-82
2021/10/11 03:42:12;;;;;;;8.53;3.53;;;13.30;99.90;;;;;;5056024;28;20652;-82
2021/10/11 03:44:37;;;;;;;9.77;3.23;;;13.20;99.90;;;;;;5055094;28;20182;-82
2021/10/11 03:47:03;;;;;;;8.97;3.30;;;13.30;99.90;;;;;;5056145;28;20288;-83
2021/10/11 03:49:28;;;;;;;7.93;3.43;;;13.20;99.90;;;;;;5056211;28;20594;-82
2021/10/11 03:51:54;;;;;;;11.37;3.13;;;13.30;99.90;;;;;;5055777;28;20195;-83
2021/10/11 03:54:20;;;;;;;7.40;3.00;;;13.30;99.90;;;;;;5055682;28;20173;-82
2021/10/11 03:56:45;;;;;;;9.00;2.97;;;13.20;99.90;;;;;;5054692;28;20276;-82
2021/10/11 03:59:12;;;;;;;9.27;3.30;;;13.30;99.90;;;;;;5055724;28;20180;-81
2021/10/11 04:01:38;;;;;;;9.67;3.30;;;13.30;99.90;;;;;;5055514;28;20177;-81
2021/10/11 04:04:06;;;;;;;9.43;2.80;;;13.10;99.90;;;;;;5055271;28;20256;-82
2021/10/11 04:06:31;;;;;;;12.60;3.37;;;13.20;99.90;;;;;;5054893;28;20224;-82
2021/10/11 04:09:00;;;;;;;8.37;3.33;;;13.30;99.90;;;;;;5055308;28;20177;-82
2021/10/11 04:11:25;;;;;;;11.90;3.70;;;13.10;99.90;;;;;;5061643;28;20166;-81
2021/10/11 04:13:52;;;;;;;9.47;3.53;;;13.10;99.90;;;;;;5078737;28;20232;-79
2021/10/11 04:16:18;;;;;;;6.90;3.13;;;13.20;99.90;;;;;;5056907;28;20182;-80
2021/10/11 04:18:45;;;;;;;6.77;3.13;;;13.10;99.90;;;;;;5055964;28;20219;-84
2021/10/11 04:21:22;;;;;;;9.43;2.97;;;13.20;99.90;;;;;;5056981;28;20227;-82
2021/10/11 04:23:48;;;;;;;10.37;3.33;;;13.20;99.90;;;;;;5057911;28;20170;-80
2021/10/11 04:26:14;;;;;;;9.20;3.10;;;13.40;99.90;;;;;;5055169;28;20224;-82
2021/10/11 04:28:40;;;;;;;8.97;2.90;;;13.30;98.50;;;;;;5055157;28;20181;-85
2021/10/11 04:31:06;;;;;;;8.03;3.33;;;13.10;98.30;;;;;;5055432;28;20168;-85
2021/10/11 04:33:32;;;;;;;7.83;3.00;;;13.40;99.10;;;;;;5077623;28;20159;-82
2021/10/11 04:35:59;;;;;;;9.70;2.97;;;13.40;98.10;;;;;;5078268;28;20169;-85
2021/10/11 04:38:25;;;;;;;14.40;3.03;;;13.50;96.10;;;;;;5059749;28;20173;-81
2021/10/11 04:40:56;;;;;;;12.63;3.40;;;13.50;96.30;;;;;;5055876;28;20185;-85
2021/10/11 04:43:23;;;;;;;9.00;3.00;;;13.50;95.30;;;;;;5055653;28;20165;-83
2021/10/11 04:45:48;;;;;;;11.27;3.33;;;13.60;95.20;;;;;;5055133;28;20275;-84
2021/10/11 04:48:15;;;;;;;10.03;3.17;;;13.60;94.60;;;;;;5054971;28;20662;-83
2021/10/11 04:50:41;;;;;;;9.97;3.20;;;13.50;93.90;;;;;;5055475;28;20175;-84
2021/10/11 04:53:07;;;;;;;13.03;3.10;;;13.40;94.00;;;;;;5057774;28;20215;-86
2021/10/11 04:55:33;;;;;;;8.50;3.53;;;13.50;94.10;;;;;;5061472;28;20379;-86
2021/10/11 04:58:00;;;;;;;10.60;3.43;;;13.70;93.90;;;;;;5058575;28;20639;-84
2021/10/11 05:00:27;;;;;;;7.77;3.00;;;13.50;93.00;;;;;;5058003;28;20172;-83
2021/10/11 05:02:52;;;;;;;12.70;3.23;;;13.40;92.90;;;;;;5055848;28;20170;-84
2021/10/11 05:05:18;;;;;;;9.97;3.40;;;13.50;92.80;;;;;;5054691;28;20654;-85
2021/10/11 05:07:44;;;;;;;7.57;2.90;;;13.30;91.70;;;;;;5054567;28;20272;-82
2021/10/11 05:10:09;;;;;;;9.20;2.90;;;13.20;93.00;;;;;;5054344;28;20534;-84
2021/10/11 05:12:35;;;;;;;8.43;3.47;;;13.10;94.70;;;;;;5054412;28;20525;-82
2021/10/11 05:15:01;;;;;;;8.17;3.30;;;13.10;94.90;;;;;;5053959;28;20172;-83
2021/10/11 05:17:26;;;;;;;10.13;3.40;;;12.90;95.70;;;;;;5054150;28;20637;-82
2021/10/11 05:19:52;;;;;;;8.70;2.90;;;13.10;95.70;;;;;;5054518;28;20272;-86
2021/10/11 05:22:18;;;;;;;9.93;3.17;;;13.00;95.10;;;;;;5054270;28;20172;-81
2021/10/11 05:24:44;;;;;;;9.37;3.50;;;12.80;95.60;;;;;;5054652;28;20167;-84
2021/10/11 05:27:09;;;;;;;8.37;3.13;;;12.80;95.90;;;;;;5054547;28;20603;-83
2021/10/11 05:29:37;;;;;;;8.23;3.50;;;12.80;96.70;;;;;;5056135;28;20210;-82
2021/10/11 05:32:05;;;;;;;10.60;3.47;;;12.90;95.80;;;;;;5060989;28;20201;-84
2021/10/11 05:34:31;;;;;;;10.27;3.63;;;13.10;94.90;;;;;;5060687;28;20172;-82
2021/10/11 05:36:58;;;;;;;9.07;3.47;;;13.00;93.50;;;;;;5061599;28;20188;-82
2021/10/11 05:39:24;;;;;;;7.97;3.80;;;13.10;93.70;;;;;;5058560;28;20175;-84
2021/10/11 05:41:50;;;;;;;9.10;3.30;;;13.20;93.80;;;;;;5056145;28;20731;-82
2021/10/11 05:44:16;;;;;;;15.43;3.97;;;13.40;92.30;;;;;;5067200;28;20227;-82
2021/10/11 05:46:42;;;;;;;8.37;3.00;;;13.30;91.70;;;;;;5064132;28;20233;-82
2021/10/11 05:49:12;;;;;;;10.33;3.57;;;13.60;91.10;;;;;;5067078;28;20657;-83
2021/10/11 05:51:38;;;;;;;9.73;3.60;;;13.40;90.50;;;;;;5065633;28;20169;-84
2021/10/11 05:54:04;;;;;;;9.10;3.87;;;13.50;90.20;;;;;;5060991;28;20639;-85
2021/10/11 05:56:30;;;;;;;8.97;4.10;;;13.60;84.90;;;;;;5055509;28;20162;-84
2021/10/11 05:59:04;;;;;;;10.20;3.57;;;13.60;79.80;;;;;;5054202;28;20694;-85
2021/10/11 06:01:31;;;;;;;11.50;3.70;;;13.50;80.80;;;;;;5054875;28;20160;-85
2021/10/11 06:03:56;;;;;;;9.97;3.77;;;13.50;79.50;;;;;;5052926;28;20647;-84
2021/10/11 06:06:22;;;;;;;10.80;3.57;;;13.40;80.90;;;;;;5053979;28;20211;-84
2021/10/11 06:08:48;;;;;;;13.63;6.10;;;13.40;82.00;;;;;;5052535;28;20204;-84
2021/10/11 06:11:17;;;;;;;15.20;4.73;;;13.40;83.70;;;;;;5053350;28;20713;-83
2021/10/11 06:13:44;;;;;;;11.20;4.13;;;13.30;85.10;;;;;;5052641;28;20169;-84
2021/10/11 06:16:10;;;;;;;11.37;4.60;;;13.30;84.80;;;;;;5053133;28;20202;-82
2021/10/11 06:18:36;;;;;;;13.13;4.70;;;13.20;86.90;;;;;;5052985;28;20196;-84
2021/10/11 06:21:02;;;;;;;9.23;4.33;;;13.20;89.40;;;;;;5053258;28;20294;-81
2021/10/11 06:23:27;;;;;;;13.77;4.80;;;13.20;90.00;;;;;;5053182;28;20199;-83
2021/10/11 06:25:54;;;;;;;14.23;5.00;;;13.20;90.00;;;;;;5056889;28;20745;-81
2021/10/11 06:28:20;;;;;;;9.57;4.73;;;13.30;86.50;;;;;;5059660;28;20301;-82
2021/10/11 06:30:46;;;;;;;10.17;4.47;;;13.40;82.40;;;;;;5053746;28;20209;-84
2021/10/11 06:33:16;;;;;;;13.80;5.13;;;13.40;80.20;;;;;;5053361;28;20291;-82
2021/10/11 06:35:42;;;;;;;13.57;5.20;;;13.30;81.40;;;;;;5051981;28;20183;-81
2021/10/11 06:38:08;;;;;;;12.30;5.17;;;13.10;86.80;;;;;;5064275;28;20180;-82
2021/10/11 06:40:34;;;;;;;13.43;5.37;;;12.90;91.20;;;;;;5057412;28;20275;-79
2021/10/11 06:43:00;;;;;;;14.00;5.67;;;13.00;92.00;;;;;;5053897;28;20280;-80
2021/10/11 06:45:26;;;;;;;12.37;6.07;;;13.10;92.20;;;;;;5071888;28;20178;-82
2021/10/11 06:47:51;;;;;;;16.63;5.70;;;13.00;92.90;;;;;;5073387;28;20176;-81
2021/10/11 06:50:17;;;;;;;11.13;5.67;;;12.90;94.50;;;;;;5073740;28;20621;-81
2021/10/11 06:52:43;;;;;;;11.57;5.33;;;12.90;95.30;;;;;;5073923;28;20173;-82
2021/10/11 06:55:09;;;;;;;15.07;5.63;;;13.00;94.90;;;;;;5071220;28;20173;-81
2021/10/11 06:57:34;;;;;;;12.03;5.13;;;13.10;94.90;;;;;;5052605;28;20533;-82
2021/10/11 07:00:00;;;;;;;9.60;5.23;;;13.20;94.40;;;;;;5052967;28;20490;-81
2021/10/11 07:02:26;;;;;;;15.70;5.17;;;13.30;93.30;;;;;;5053113;28;20317;-81
2021/10/11 07:04:57;;;;;;;14.63;5.40;;;13.40;92.40;;;;;;5053704;28;20174;-82
2021/10/11 07:07:28;;;;;;;12.07;5.90;;;13.40;90.40;;;;;;5061257;28;20226;-80
2021/10/11 07:09:55;;;;;;;12.17;5.57;;;13.50;83.20;;;;;;5077728;28;20175;-80
2021/10/11 07:12:20;;;;;;;14.20;5.87;;;13.60;77.40;;;;;;5082754;28;20182;-80
2021/10/11 07:14:48;;;;;;;14.97;6.17;;;13.70;77.30;;;;;;5079394;28;20597;-81
2021/10/11 07:17:14;;;;;;;17.03;5.30;;;13.70;79.10;;;;;;5078624;28;20164;-80
2021/10/11 07:19:45;;;;;;;13.00;5.20;;;13.70;73.70;;;;;;5076902;28;20522;-79
2021/10/11 07:22:19;;;;;;;13.87;5.23;;;13.60;75.70;;;;;;5077466;28;20170;-79
2021/10/11 07:24:49;;;;;;;18.40;6.97;;;13.60;76.40;;;;;;5076868;28;20185;-81
2021/10/11 07:27:17;;;;;;;12.07;6.10;;;13.40;81.30;;;;;;5076895;28;20196;-80
2021/10/11 07:29:44;;;;;;;12.27;5.50;;;13.20;88.40;;;;;;5082404;28;20169;-81
2021/10/11 07:32:10;;;;;;;15.83;5.00;;;13.10;91.30;;;;;;5069555;28;20184;-80
2021/10/11 07:34:36;;;;;;;13.17;5.30;;;13.20;91.90;;;;;;5078377;28;20194;-80
2021/10/11 07:37:02;;;;;;;13.20;5.73;;;13.30;91.00;;;;;;5088679;28;20186;-79
2021/10/11 07:39:28;;;;;;;12.53;5.30;;;13.20;91.10;;;;;;5077840;28;20705;-79
2021/10/11 07:41:54;;;;;;;12.13;5.50;;;13.30;91.20;;;;;;5076511;28;20537;-81
2021/10/11 07:44:21;;;;;;;12.97;5.67;;;13.40;90.00;;;;;;5076108;28;20182;-82
2021/10/11 07:46:54;;;;;;;14.40;5.23;;;13.40;88.80;;;;;;5076831;28;20727;-80
2021/10/11 07:49:21;;;;;;;13.97;5.13;;;13.30;89.50;;;;;;5073467;28;20167;-81
2021/10/11 07:51:48;;;;;;;11.20;5.27;;;13.30;90.30;;;;;;5064963;28;20174;-79
2021/10/11 07:54:16;;;;;;;13.37;5.40;;;13.30;90.40;;;;;;5058326;28;20615;-83
2021/10/11 07:56:43;;;;;;;12.23;5.30;;;13.50;89.60;;;;;;5076175;28;20177;-80
2021/10/11 07:59:09;;;;;;;11.53;4.87;;;13.40;87.80;;;;;;5064636;28;20182;-79
2021/10/11 08:01:35;;;;;;;8.00;5.10;;;13.40;87.90;;;;;;5063444;28;20177;-81
2021/10/11 08:04:03;;;;;;;13.17;4.80;;;13.40;82.70;;;;;;5068714;28;20161;-81
2021/10/11 08:06:32;;;;;;;9.83;5.13;;;13.70;79.70;;;;;;5057363;28;20303;-81
2021/10/11 08:08:58;;;;;;;12.80;5.40;;;13.40;82.20;;;;;;5061841;28;20169;-81
2021/10/11 08:11:24;;;;;;;15.00;5.27;;;13.30;86.40;;;;;;5074263;28;20498;-81
2021/10/11 08:13:53;;;;;;;15.27;5.50;;;13.30;87.90;;;;;;5073651;28;20179;-82
2021/10/11 08:16:20;;;;;;;10.73;5.23;;;13.30;88.70;;;;;;5073305;28;20239;-80
2021/10/11 08:18:46;;;;;;;12.57;4.80;;;13.30;89.30;;;;;;5069677;28;20164;-80
2021/10/11 08:21:11;;;;;;;11.63;5.10;;;13.30;89.80;;;;;;5075296;28;20172;-79
2021/10/11 08:23:41;;;;;;;12.80;5.10;;;13.40;87.50;;;;;;5075356;28;20321;-82
2021/10/11 08:26:13;;;;;;;12.07;5.20;;;13.50;86.90;;;;;;5059004;28;20211;-79
2021/10/11 08:28:39;;;;;;;11.87;5.47;;;13.70;83.90;;;;;;5057929;28;20169;-82
2021/10/11 08:31:05;;;;;;;13.07;5.23;;;13.80;82.50;;;;;;5057572;28;20644;-80
2021/10/11 08:33:31;;;;;;;13.03;5.30;;;13.80;78.40;;;;;;5060967;28;20183;-79
2021/10/11 08:35:56;;;;;;;15.43;5.60;;;13.80;77.40;;;;;;5075335;28;20537;-80
2021/10/11 08:38:22;;;;;;;14.03;5.67;;;13.80;77.20;;;;;;5070989;28;20668;-82
2021/10/11 08:40:49;;;;;;;14.60;5.20;;;14.00;77.70;;;;;;5054896;28;20716;-81
2021/10/11 08:43:15;;;;;;;17.10;6.23;;;14.00;75.20;;;;;;5063934;28;20164;-80
2021/10/11 08:45:47;;;;;;;20.80;6.10;;;14.00;74.10;;;;;;5069247;28;20255;-77
2021/10/11 08:48:13;;;;;;;15.30;5.90;;;14.10;73.00;;;;;;5062761;28;20682;-83
2021/10/11 08:50:39;;;;;;;17.67;5.97;;;14.20;71.20;;;;;;5057287;28;20169;-85
2021/10/11 08:53:07;;;;;;;11.47;5.57;;;14.30;68.20;;;;;;5057548;28;20194;-82
2021/10/11 08:55:32;;;;;;;10.70;5.33;;;14.50;60.70;;;;;;5060019;28;20157;-81
2021/10/11 08:58:07;;;;;;;12.47;5.83;;;14.50;58.80;;;;;;5066737;28;20181;-86
2021/10/11 09:00:38;;;;;;;11.70;5.33;;;14.50;60.20;;;;;;5054332;28;20168;-80
2021/10/11 09:03:06;;;;;;;12.53;5.47;;;14.50;53.90;;;;;;5073580;28;20214;-82
2021/10/11 09:05:36;;;;;;;14.43;5.53;;;14.90;49.80;;;;;;5075063;28;20288;-82
2021/10/11 09:08:06;;;;;;;10.83;4.47;;;14.60;50.50;;;;;;5074414;28;20184;-82
2021/10/11 09:10:47;;;;;;;12.20;4.73;;;14.60;51.70;;;;;;5074491;28;20290;-82
2021/10/11 09:13:13;;;;;;;14.33;5.23;;;14.50;52.90;;;;;;5074378;28;20253;-82
2021/10/11 09:15:39;;;;;;;15.40;5.50;;;14.80;50.90;;;;;;5083296;28;20264;-81
2021/10/11 09:18:05;;;;;;;11.93;5.27;;;14.80;49.80;;;;;;5091348;28;20160;-83
2021/10/11 09:20:36;;;;;;;10.07;4.93;;;15.00;49.70;;;;;;5064478;28;20700;-81
2021/10/11 09:23:02;;;;;;;13.27;5.30;;;15.00;45.50;;;;;;5092694;28;20631;-82
2021/10/11 09:25:35;;;;;;;12.60;4.97;;;15.10;41.80;;;;;;5081327;28;20270;-81
2021/10/11 09:28:01;;;;;;;10.10;4.83;;;15.40;39.80;;;;;;5064478;28;20177;-81
2021/10/11 09:30:33;;;;;;;12.97;5.47;;;15.50;33.80;;;;;;5073350;28;20662;-81
2021/10/11 09:33:07;;;;;;;15.90;5.73;;;15.50;28.80;;;;;;5073818;28;20559;-81
2021/10/11 09:35:33;;;;;;;10.17;4.63;;;15.70;27.90;;;;;;5073955;28;20188;-81
2021/10/11 09:37:59;;;;;;;14.50;5.03;;;15.70;26.70;;;;;;5074536;28;20203;-81
2021/10/11 09:40:26;;;;;;;13.80;4.60;;;16.00;20.80;;;;;;5066799;28;20176;-81
2021/10/11 09:42:52;;;;;;;11.73;5.30;;;15.80;17.80;;;;;;5072706;28;20179;-82
2021/10/11 09:45:23;;;;;;;10.00;4.20;;;15.90;2.80;;;;;;5074524;28;20174;-80
2021/10/11 09:47:50;;;;;;;14.87;5.33;;;16.00;1.00;;;;;;5074825;28;20248;-80
2021/10/11 09:50:17;;;;;;;12.07;5.20;;;15.90;8.50;;;;;;5078591;28;20455;-79
2021/10/11 09:52:43;;;;;;;21.20;9.43;;;16.00;10.80;;;;;;5081882;28;20609;-78
2021/10/11 09:55:13;;;;;;;102.13;54.80;;;16.00;12.20;;;;;;5081005;28;20156;-79
2021/10/11 09:57:39;;;;;;;14.00;6.50;;;16.00;1.00;;;;;;5075606;28;20172;-80
2021/10/11 10:00:10;;;;;;;10.77;5.03;;;16.00;1.00;;;;;;5073022;28;20175;-81
2021/10/11 10:02:45;;;;;;;11.03;4.50;;;15.90;5.20;;;;;;5068791;28;20172;-82
2021/10/11 10:05:37;;;;;;;10.07;3.93;;;15.90;4.90;;;;;;5073037;28;20216;-81
2021/10/11 10:08:07;;;;;;;12.13;6.23;;;15.80;1.00;;;;;;5085262;28;20184;-79
2021/10/11 10:10:35;;;;;;;12.40;4.70;;;15.80;2.10;;;;;;5079347;28;20262;-81
2021/10/11 10:13:18;;;;;;;13.50;5.20;;;15.80;3.50;;;;;;5074713;28;20164;-80
2021/10/11 10:15:44;;;;;;;13.03;4.73;;;15.60;8.40;;;;;;5072161;28;20258;-80
2021/10/11 10:18:12;;;;;;;21.30;8.33;;;15.50;14.80;;;;;;5073103;28;20188;-80
2021/10/11 10:20:52;;;;;;;9.63;4.27;;;15.50;18.50;;;;;;5072847;28;20177;-84
2021/10/11 10:23:35;;;;;;;13.50;4.70;;;15.40;16.80;;;;;;5078084;28;20172;-82
2021/10/11 10:26:09;;;;;;;14.97;4.80;;;15.60;21.50;;;;;;5072438;28;20315;-81
2021/10/11 10:28:51;;;;;;;10.40;4.40;;;15.60;17.70;;;;;;5073876;28;20166;-81
2021/10/11 10:31:35;;;;;;;12.40;3.93;;;15.60;14.70;;;;;;5074260;28;20507;-81
2021/10/11 10:34:26;;;;;;;11.73;4.20;;;15.50;19.70;;;;;;5075556;28;20226;-80
2021/10/11 10:37:08;;;;;;;16.57;4.80;;;15.80;20.30;;;;;;5075574;28;20177;-80
2021/10/11 10:39:48;;;;;;;12.07;4.20;;;15.70;22.00;;;;;;5076466;28;20242;-81
2021/10/11 10:42:21;;;;;;;11.57;4.30;;;15.80;21.60;;;;;;5076086;28;20164;-82
2021/10/11 10:44:47;;;;;;;13.90;4.87;;;15.60;25.00;;;;;;5078211;28;20262;-82
2021/10/11 10:47:13;;;;;;;12.10;4.13;;;15.70;25.00;;;;;;5079070;28;20195;-80
2021/10/11 10:49:44;;;;;;;9.93;4.17;;;15.60;23.20;;;;;;5081015;28;20161;-81
2021/10/11 10:52:13;;;;;;;10.10;4.90;;;15.80;23.10;;;;;;5079566;28;20701;-80
2021/10/11 10:54:44;;;;;;;11.13;4.90;;;15.60;25.90;;;;;;5078048;28;20639;-83
2021/10/11 10:57:13;;;;;;;14.80;5.50;;;15.60;29.30;;;;;;5081087;28;20193;-82
2021/10/11 10:59:40;;;;;;;16.93;6.17;;;15.60;33.00;;;;;;5079428;28;20552;-81
2021/10/11 11:02:11;;;;;;;10.60;4.77;;;15.80;25.30;;;;;;5078016;28;20168;-83
2021/10/11 11:04:37;;;;;;;10.97;4.90;;;15.70;27.10;;;;;;5076041;28;20176;-85
2021/10/11 11:07:08;;;;;;;13.20;4.40;;;15.80;26.70;;;;;;5077884;28;20333;-81
2021/10/11 11:09:45;;;;;;;14.17;4.00;;;15.90;21.00;;;;;;5079173;28;20264;-78
2021/10/11 11:12:12;;;;;;;12.00;3.70;;;16.00;7.20;;;;;;5080786;28;20647;-77
2021/10/11 11:14:44;;;;;;;11.10;3.97;;;16.00;1.00;;;;;;5083205;28;20170;-82
2021/10/11 11:17:14;;;;;;;11.37;4.20;;;16.00;1.00;;;;;;5081511;28;20168;-78
2021/10/11 11:19:43;;;;;;;10.77;3.23;;;16.10;1.00;;;;;;5078032;28;20644;-77
2021/10/11 11:22:19;;;;;;;11.27;4.20;;;16.20;1.00;;;;;;5076590;28;20165;-79
2021/10/11 11:24:50;;;;;;;13.07;3.90;;;16.40;1.00;;;;;;5076113;28;20164;-79
2021/10/11 11:27:34;;;;;;;16.53;4.40;;;16.50;1.00;;;;;;5076507;28;20203;-80
2021/10/11 11:30:07;;;;;;;11.33;3.83;;;16.50;1.00;;;;;;5074880;28;20180;-81
2021/10/11 11:32:57;;;;;;;13.43;3.97;;;16.40;1.00;;;;;;5074422;28;20176;-77
2021/10/11 11:35:26;;;;;;;12.43;4.27;;;16.70;1.00;;;;;;5075854;28;20218;-79
2021/10/11 11:37:55;;;;;;;9.27;3.17;;;16.70;1.00;;;;;;5075633;28;20333;-79
2021/10/11 11:40:24;;;;;;;13.00;3.73;;;16.50;1.00;;;;;;5075763;28;20168;-78
2021/10/11 11:42:50;;;;;;;8.60;2.70;;;16.40;1.00;;;;;;5075677;28;20211;-81
2021/10/11 11:45:18;;;;;;;8.57;3.00;;;16.40;1.00;;;;;;5074993;28;20255;-77
2021/10/11 11:47:47;;;;;;;7.80;3.10;;;16.40;1.00;;;;;;5075296;28;20290;-78
2021/10/11 11:50:24;;;;;;;10.40;3.80;;;16.60;1.00;;;;;;5075521;28;20165;-79
2021/10/11 11:53:05;;;;;;;13.00;3.00;;;16.40;1.00;;;;;;5075413;28;20263;-78
2021/10/11 11:55:31;;;;;;;11.50;4.27;;;16.20;1.00;;;;;;5075011;28;20651;-77
2021/10/11 11:57:58;;;;;;;12.70;3.73;;;16.30;1.00;;;;;;5075224;28;20172;-77
2021/10/11 12:00:25;;;;;;;9.87;3.43;;;16.30;1.00;;;;;;5074458;28;20544;-78
2021/10/11 12:02:52;;;;;;;9.13;3.43;;;16.20;1.00;;;;;;5075158;28;20176;-77
2021/10/11 12:05:19;;;;;;;12.00;3.37;;;16.20;1.00;;;;;;5075858;28;20597;-76
2021/10/11 12:07:46;;;;;;;11.87;3.60;;;16.40;1.00;;;;;;5075157;28;20285;-77
2021/10/11 12:10:17;;;;;;;11.67;2.90;;;16.40;1.00;;;;;;5075164;28;20164;-81
2021/10/11 12:12:43;;;;;;;8.73;2.87;;;16.40;1.00;;;;;;5075364;28;20176;-78
2021/10/11 12:15:18;;;;;;;8.70;3.20;;;16.40;1.00;;;;;;5075643;28;20153;-78
2021/10/11 12:17:44;;;;;;;9.57;2.80;;;16.40;1.00;;;;;;5075297;28;20164;-78
2021/10/11 12:20:10;;;;;;;10.30;2.63;;;16.40;1.00;;;;;;5079186;28;20182;-77
2021/10/11 12:22:36;;;;;;;12.17;2.93;;;16.50;1.00;;;;;;5086195;28;20585;-77
2021/10/11 12:25:07;;;;;;;8.17;2.90;;;16.40;1.00;;;;;;5075642;28;20193;-79
2021/10/11 12:27:33;;;;;;;11.50;4.07;;;16.30;1.00;;;;;;5075180;28;20196;-82
2021/10/11 12:30:02;;;;;;;10.00;4.30;;;16.40;1.00;;;;;;5074860;28;20171;-82
2021/10/11 12:32:33;;;;;;;13.80;3.30;;;16.60;1.00;;;;;;5075063;28;20560;-82
2021/10/11 12:35:00;;;;;;;12.53;2.57;;;16.70;1.00;;;;;;5074951;28;20160;-81
2021/10/11 12:37:35;;;;;;;8.90;2.73;;;16.80;1.00;;;;;;5076247;28;20168;-82
2021/10/11 12:40:02;;;;;;;8.07;2.23;;;16.90;1.00;;;;;;5075835;28;20160;-82
2021/10/11 12:42:28;;;;;;;7.53;2.13;;;16.70;1.00;;;;;;5076528;28;20214;-81